WY45 weather

Sloan Airport
Cheyenne, Wyoming, United States

Public forecast

Using degrees Fahrenheit for public forecast. Weather courtesy of forecast.io.

Closest aviation weather report (METAR) to Sloan Airport

Closest report is Cheyenne Regional Jerry Olson Field, 4.7 nm (8.7 km) W. Retrieved 2019/10/23 14:53 UTC (17 minutes ago):

KCYS 231453Z 30012G20KT 10SM FEW050 BKN070 BKN085 02/M03 A3008 RMK AO2 SLP173 60000 T00171033 53007

Closest aviation forecast (TAF) to Sloan Airport

Closest forecast is Cheyenne Regional Jerry Olson Field, 4.7 nm (8.7 km) W. Retrieved 2019/10/23 12:30 UTC (3 hours ago):

TAF KCYS 231128Z 2312/2412 33015KT 1SM -SN OVC008 FM231400 32030G40KT P6SM VCSH SCT050 BKN100 FM240000 36010KT P6SM VCSH OVC035